Time;durP1;ratioP1;P1;durP2;ratioP2;P2;SDS_P1;SDS_P2;PMS_P1;PMS_P2;Temp;Humidity;BMP_temperature;BMP_pressure;BME280_temperature;BME280_humidity;BME280_pressure;Samples;Min_cycle;Max_cycle;Signal;HPM_P1;HPM_P2
2022/03/04 00:01:43;;;;;;;14.73;8.33;;;1.50;99.90;;;;;;5006030;28;20222;-44
2022/03/04 00:04:11;;;;;;;15.77;8.13;;;1.50;99.90;;;;;;4998530;28;20507;-44
2022/03/04 00:06:38;;;;;;;16.80;8.30;;;1.50;99.90;;;;;;5002298;28;20543;-49
2022/03/04 00:09:05;;;;;;;16.73;8.37;;;1.50;99.90;;;;;;4988071;28;20237;-47
2022/03/04 00:11:32;;;;;;;18.13;8.67;;;1.50;99.90;;;;;;4992887;28;20229;-44
2022/03/04 00:13:59;;;;;;;15.73;8.00;;;1.60;99.90;;;;;;5019978;28;20201;-44
2022/03/04 00:16:26;;;;;;;16.50;9.00;;;1.50;99.90;;;;;;5004774;28;20215;-45
2022/03/04 00:19:07;;;;;;;19.03;9.20;;;1.50;99.90;;;;;;4986549;28;20230;-45
2022/03/04 00:21:35;;;;;;;17.63;9.27;;;1.50;99.90;;;;;;5003736;28;20229;-45
2022/03/04 00:24:02;;;;;;;14.70;9.10;;;1.50;99.90;;;;;;4991138;28;20216;-44
2022/03/04 00:26:29;;;;;;;17.23;9.43;;;1.50;99.90;;;;;;4998464;28;20518;-45
2022/03/04 00:28:56;;;;;;;17.07;9.60;;;1.50;99.90;;;;;;4992653;28;20529;-45
2022/03/04 00:31:23;;;;;;;17.13;9.30;;;1.50;99.90;;;;;;5004412;28;20306;-45
2022/03/04 00:33:50;;;;;;;16.17;9.30;;;1.50;99.90;;;;;;5006317;28;20495;-45
2022/03/04 00:36:21;;;;;;;12.53;8.17;;;1.40;99.90;;;;;;4981994;28;20209;-45
2022/03/04 00:38:50;;;;;;;16.23;8.50;;;1.50;99.90;;;;;;4985324;28;20280;-45
2022/03/04 00:41:18;;;;;;;14.70;8.73;;;1.40;99.90;;;;;;4997493;28;20227;-45
2022/03/04 00:43:45;;;;;;;14.10;8.17;;;1.40;99.90;;;;;;5002273;28;20255;-47
2022/03/04 00:46:13;;;;;;;16.10;9.23;;;1.40;99.90;;;;;;5008175;28;20229;-45
2022/03/04 00:48:40;;;;;;;13.03;7.97;;;1.30;99.90;;;;;;4994851;28;20281;-46
2022/03/04 00:51:07;;;;;;;12.33;7.60;;;1.30;99.90;;;;;;4992843;28;20293;-45
2022/03/04 00:53:35;;;;;;;15.43;8.57;;;1.20;99.90;;;;;;5017829;28;20236;-46
2022/03/04 00:56:04;;;;;;;16.20;8.50;;;1.20;99.90;;;;;;4988439;28;20201;-45
2022/03/04 00:58:31;;;;;;;16.63;8.93;;;1.10;99.90;;;;;;5003027;28;20281;-46
2022/03/04 01:00:58;;;;;;;18.20;8.93;;;1.20;99.90;;;;;;5004575;28;20759;-45
2022/03/04 01:03:25;;;;;;;15.40;8.13;;;1.20;99.90;;;;;;5000113;28;20244;-45
2022/03/04 01:05:52;;;;;;;18.30;8.40;;;1.20;99.90;;;;;;4985048;28;20483;-45
2022/03/04 01:08:19;;;;;;;13.97;8.17;;;1.20;99.90;;;;;;4986647;28;20996;-46
2022/03/04 01:10:48;;;;;;;14.50;8.33;;;1.20;99.90;;;;;;5000062;28;20328;-45
2022/03/04 01:13:17;;;;;;;15.77;8.30;;;1.20;99.90;;;;;;5013357;28;20734;-48
2022/03/04 01:15:44;;;;;;;15.13;8.30;;;1.20;99.90;;;;;;5013006;28;20206;-47
2022/03/04 01:18:11;;;;;;;15.67;8.67;;;1.20;99.90;;;;;;4999004;28;20217;-45
2022/03/04 01:20:38;;;;;;;14.63;7.93;;;1.20;99.90;;;;;;4993230;28;20213;-46
2022/03/04 01:23:05;;;;;;;20.27;8.90;;;1.20;99.90;;;;;;4997193;28;20228;-45
2022/03/04 01:25:32;;;;;;;15.97;8.10;;;1.20;99.90;;;;;;4972577;28;20217;-47
2022/03/04 01:28:00;;;;;;;12.90;7.20;;;1.10;99.90;;;;;;5019680;28;20540;-46
2022/03/04 01:30:29;;;;;;;14.33;8.50;;;1.20;99.90;;;;;;4989251;28;20230;-47
2022/03/04 01:32:56;;;;;;;15.77;7.77;;;1.10;99.90;;;;;;4993102;28;20243;-45
2022/03/04 01:35:23;;;;;;;19.47;8.47;;;1.20;99.90;;;;;;5012441;28;20465;-47
2022/03/04 01:37:50;;;;;;;13.90;8.17;;;1.20;99.90;;;;;;4993766;28;20312;-46
2022/03/04 01:40:17;;;;;;;16.33;8.57;;;1.20;99.90;;;;;;4994327;28;20206;-47
2022/03/04 01:42:44;;;;;;;14.17;7.70;;;1.20;99.90;;;;;;4987435;28;20360;-44
2022/03/04 01:45:11;;;;;;;13.63;7.97;;;1.30;99.90;;;;;;4999916;28;20213;-48
2022/03/04 01:47:42;;;;;;;20.17;8.23;;;1.50;99.90;;;;;;5008093;28;20228;-44
2022/03/04 01:50:10;;;;;;;15.80;8.03;;;1.50;99.90;;;;;;4998962;28;20218;-48
2022/03/04 01:52:38;;;;;;;12.53;7.77;;;1.60;99.90;;;;;;4992282;28;20332;-42
2022/03/04 01:55:06;;;;;;;16.30;7.40;;;1.70;99.90;;;;;;5014925;28;20220;-43
2022/03/04 01:57:33;;;;;;;14.43;7.50;;;1.70;99.90;;;;;;4993306;28;20212;-48
2022/03/04 02:00:00;;;;;;;15.97;7.77;;;1.70;99.90;;;;;;5006631;28;20252;-49
2022/03/04 02:02:27;;;;;;;16.80;7.50;;;1.60;99.90;;;;;;5009578;28;20300;-49
2022/03/04 02:04:55;;;;;;;16.80;7.70;;;1.50;99.90;;;;;;5004256;28;20219;-46
2022/03/04 02:07:22;;;;;;;20.03;8.17;;;1.50;99.90;;;;;;4984785;28;20229;-50
2022/03/04 02:09:49;;;;;;;17.10;7.50;;;1.50;99.90;;;;;;4994505;28;20270;-46
2022/03/04 02:12:16;;;;;;;13.13;7.03;;;1.50;99.90;;;;;;4989884;28;20235;-46
2022/03/04 02:14:43;;;;;;;13.17;7.10;;;1.50;99.90;;;;;;5013766;28;20262;-44
2022/03/04 02:17:10;;;;;;;15.53;7.30;;;1.50;99.90;;;;;;4995001;28;20338;-45
2022/03/04 02:19:37;;;;;;;15.40;8.33;;;1.50;99.90;;;;;;5003684;28;20284;-44
2022/03/04 02:22:07;;;;;;;19.40;7.53;;;1.50;99.90;;;;;;4974561;28;20221;-45
2022/03/04 02:24:34;;;;;;;14.63;7.17;;;1.50;99.90;;;;;;5004401;28;20211;-45
2022/03/04 02:27:03;;;;;;;14.57;8.37;;;1.50;99.90;;;;;;4993026;28;20202;-44
2022/03/04 02:29:34;;;;;;;14.53;7.87;;;1.50;99.90;;;;;;5011272;28;20241;-46
2022/03/04 02:32:01;;;;;;;13.30;7.60;;;1.40;99.90;;;;;;4982041;28;20269;-45
2022/03/04 02:34:29;;;;;;;14.07;7.63;;;1.40;99.90;;;;;;5019511;28;20209;-47
2022/03/04 02:36:56;;;;;;;13.47;7.47;;;1.30;99.90;;;;;;4973871;28;20217;-45
2022/03/04 02:39:25;;;;;;;15.67;8.13;;;1.30;99.90;;;;;;5001407;28;20293;-45
2022/03/04 02:41:52;;;;;;;13.73;6.90;;;1.30;99.90;;;;;;4991545;28;20330;-47
2022/03/04 02:44:18;;;;;;;13.07;7.63;;;1.20;99.90;;;;;;5002936;28;20219;-46
2022/03/04 02:46:45;;;;;;;15.23;7.27;;;1.30;99.90;;;;;;5013139;28;20212;-47
2022/03/04 02:49:12;;;;;;;16.60;7.90;;;1.20;99.90;;;;;;5013645;28;20235;-50
2022/03/04 02:51:40;;;;;;;17.57;7.37;;;1.20;99.90;;;;;;5001809;28;20711;-47
2022/03/04 02:54:07;;;;;;;14.73;7.07;;;1.20;99.90;;;;;;5002222;28;20227;-45
2022/03/04 02:56:36;;;;;;;16.13;7.13;;;1.20;99.90;;;;;;4996319;28;20796;-45
2022/03/04 02:59:03;;;;;;;16.77;7.60;;;1.20;99.90;;;;;;5001065;28;20495;-44
2022/03/04 03:01:30;;;;;;;14.70;7.17;;;1.20;99.90;;;;;;5021896;28;20228;-45
2022/03/04 03:03:57;;;;;;;13.53;7.27;;;1.10;99.90;;;;;;5000787;28;20516;-46
2022/03/04 03:06:24;;;;;;;15.80;7.27;;;1.10;99.90;;;;;;4999595;28;20327;-46
2022/03/04 03:08:51;;;;;;;14.60;7.80;;;1.10;99.90;;;;;;5008451;28;20281;-46
2022/03/04 03:11:18;;;;;;;15.40;7.73;;;1.00;99.90;;;;;;5004923;28;20434;-46
2022/03/04 03:13:46;;;;;;;13.47;7.33;;;1.00;99.90;;;;;;4986356;28;20624;-47
2022/03/04 03:16:13;;;;;;;16.83;8.00;;;1.00;99.90;;;;;;5010930;28;20212;-45
2022/03/04 03:18:40;;;;;;;13.77;7.27;;;1.00;99.90;;;;;;5008332;28;20304;-46
2022/03/04 03:21:07;;;;;;;16.37;7.50;;;0.90;99.90;;;;;;4988200;28;20231;-46
2022/03/04 03:23:34;;;;;;;13.83;7.70;;;0.90;99.90;;;;;;4996544;28;20217;-45
2022/03/04 03:26:01;;;;;;;15.40;7.57;;;0.90;99.90;;;;;;5007665;28;20654;-45
2022/03/04 03:28:28;;;;;;;18.00;7.73;;;1.00;99.90;;;;;;4987005;28;20290;-45
2022/03/04 03:30:56;;;;;;;14.73;7.40;;;1.00;99.90;;;;;;5008905;28;20473;-46
2022/03/04 03:33:23;;;;;;;12.50;6.70;;;1.00;99.90;;;;;;5002784;28;20209;-45
2022/03/04 03:39:11;;;;;;;15.63;7.50;;;1.00;99.90;;;;;;4988471;28;20189;-45
2022/03/04 03:41:38;;;;;;;18.43;7.47;;;1.00;99.90;;;;;;5013689;28;20598;-46
2022/03/04 03:44:06;;;;;;;14.87;7.27;;;1.10;99.90;;;;;;4983462;28;20212;-46
2022/03/04 03:46:34;;;;;;;12.50;6.67;;;1.00;99.90;;;;;;5000972;28;20210;-46
2022/03/04 03:49:01;;;;;;;12.37;7.47;;;1.00;99.90;;;;;;5011975;28;20286;-45
2022/03/04 03:51:28;;;;;;;17.27;7.27;;;1.00;99.90;;;;;;5007926;28;20220;-45
2022/03/04 03:53:54;;;;;;;19.03;8.00;;;1.00;99.90;;;;;;4996791;28;20319;-45
2022/03/04 03:56:21;;;;;;;11.43;7.13;;;1.00;99.90;;;;;;5015036;28;20214;-44
2022/03/04 03:58:48;;;;;;;15.77;7.97;;;0.90;99.90;;;;;;4987464;28;20205;-49
2022/03/04 04:01:15;;;;;;;16.07;6.83;;;1.00;99.90;;;;;;5012135;28;20276;-45
2022/03/04 04:03:43;;;;;;;15.00;7.57;;;0.90;99.90;;;;;;5008769;28;20287;-49
2022/03/04 04:06:10;;;;;;;15.23;7.67;;;0.90;99.90;;;;;;4998088;28;20267;-46
2022/03/04 04:08:37;;;;;;;17.57;7.60;;;1.00;99.90;;;;;;5016612;28;20519;-49
2022/03/04 04:11:04;;;;;;;14.10;7.80;;;0.90;99.90;;;;;;5000519;28;20218;-45
2022/03/04 04:13:31;;;;;;;18.27;8.47;;;0.90;99.90;;;;;;4999458;28;20220;-46
2022/03/04 04:15:58;;;;;;;16.20;8.60;;;0.90;99.90;;;;;;4996607;28;20212;-45
2022/03/04 04:18:25;;;;;;;12.63;7.63;;;0.80;99.90;;;;;;5016257;28;20205;-46
2022/03/04 04:20:53;;;;;;;15.70;8.27;;;0.80;99.90;;;;;;4985490;28;20208;-44
2022/03/04 04:23:20;;;;;;;14.20;7.60;;;0.80;99.90;;;;;;5005372;28;20224;-49
2022/03/04 04:25:47;;;;;;;17.13;8.07;;;0.70;99.90;;;;;;4976601;28;20769;-44
2022/03/04 04:28:15;;;;;;;15.27;7.87;;;0.70;99.90;;;;;;4998352;28;20250;-44
2022/03/04 04:30:42;;;;;;;16.20;7.93;;;0.60;99.90;;;;;;4982656;28;20216;-45
2022/03/04 04:33:09;;;;;;;18.70;7.70;;;0.60;99.90;;;;;;4958792;28;1238766;-46
2022/03/04 04:35:36;;;;;;;16.23;8.00;;;0.70;99.90;;;;;;5006435;28;20242;-45
2022/03/04 04:38:04;;;;;;;16.27;8.80;;;0.70;99.90;;;;;;5001350;28;20548;-49
2022/03/04 04:40:31;;;;;;;16.30;8.10;;;0.70;99.90;;;;;;5004395;28;20269;-46
2022/03/04 04:42:58;;;;;;;13.27;7.50;;;0.70;99.90;;;;;;4998836;28;20229;-47
2022/03/04 04:45:25;;;;;;;17.50;8.30;;;0.70;99.90;;;;;;5007378;28;20709;-45
2022/03/04 04:47:53;;;;;;;15.37;8.07;;;0.80;99.90;;;;;;4990100;28;20245;-48
2022/03/04 04:50:19;;;;;;;10.83;7.00;;;0.70;99.90;;;;;;4983567;28;20391;-45
2022/03/04 04:52:47;;;;;;;13.57;7.67;;;0.80;99.90;;;;;;5002838;28;20755;-45
2022/03/04 04:55:16;;;;;;;12.70;7.00;;;0.80;99.90;;;;;;4989861;28;20802;-45
2022/03/04 04:57:42;;;;;;;13.83;7.53;;;0.90;99.90;;;;;;5003036;28;20240;-46
2022/03/04 05:00:10;;;;;;;16.77;8.47;;;0.90;99.90;;;;;;4986958;28;20237;-47
2022/03/04 05:02:37;;;;;;;14.00;7.80;;;0.80;99.90;;;;;;4987115;28;20453;-43
2022/03/04 05:05:04;;;;;;;14.20;8.17;;;0.80;99.90;;;;;;4997033;28;20319;-45
2022/03/04 05:07:31;;;;;;;12.37;8.03;;;0.80;99.90;;;;;;5002072;28;20240;-45
2022/03/04 05:09:58;;;;;;;16.03;7.27;;;0.80;99.90;;;;;;4989078;28;20288;-45
2022/03/04 05:12:26;;;;;;;12.60;6.50;;;0.70;99.90;;;;;;4990238;28;20536;-45
2022/03/04 05:14:53;;;;;;;14.50;7.03;;;0.70;99.90;;;;;;4987415;28;20212;-45
2022/03/04 05:17:20;;;;;;;13.43;6.93;;;0.70;99.90;;;;;;4995688;28;20584;-45
2022/03/04 05:19:46;;;;;;;12.37;7.23;;;0.70;99.90;;;;;;4990548;28;20217;-46
2022/03/04 05:22:13;;;;;;;14.63;7.53;;;0.70;99.90;;;;;;4994485;28;20228;-45
2022/03/04 05:24:41;;;;;;;12.20;6.80;;;0.70;99.90;;;;;;4998998;28;20211;-45
2022/03/04 05:27:08;;;;;;;13.73;7.50;;;0.70;99.90;;;;;;5002742;28;20266;-45
2022/03/04 05:29:36;;;;;;;12.83;7.37;;;0.70;99.90;;;;;;5003214;28;20218;-46
2022/03/04 05:32:04;;;;;;;14.80;6.80;;;0.90;99.90;;;;;;4991874;28;20235;-45
2022/03/04 05:34:31;;;;;;;17.07;6.90;;;0.60;99.90;;;;;;4990922;28;20219;-45
2022/03/04 05:36:58;;;;;;;12.53;7.47;;;0.70;99.90;;;;;;4985219;28;20832;-45
2022/03/04 05:39:24;;;;;;;10.13;6.67;;;0.70;99.90;;;;;;4984144;28;20211;-45
2022/03/04 05:41:51;;;;;;;13.17;7.23;;;0.70;99.90;;;;;;5011661;28;20228;-45
2022/03/04 05:44:18;;;;;;;13.70;6.93;;;0.70;99.90;;;;;;4986549;28;20210;-45
2022/03/04 05:46:47;;;;;;;12.30;6.60;;;0.80;99.90;;;;;;4992942;28;20217;-45
2022/03/04 05:49:13;;;;;;;12.57;6.90;;;0.80;99.90;;;;;;5003600;28;20282;-45
2022/03/04 05:51:41;;;;;;;11.23;6.43;;;0.80;99.90;;;;;;4972538;28;21286;-49
2022/03/04 05:54:07;;;;;;;14.37;7.27;;;0.80;99.90;;;;;;4984133;28;20209;-44
2022/03/04 05:56:34;;;;;;;11.90;6.77;;;0.80;99.90;;;;;;4992476;28;20218;-49
2022/03/04 05:59:02;;;;;;;14.20;6.73;;;0.90;99.90;;;;;;4993153;28;20289;-45
2022/03/04 06:01:28;;;;;;;13.27;6.73;;;0.80;99.90;;;;;;5003111;28;20431;-47
2022/03/04 06:03:58;;;;;;;14.57;6.43;;;0.80;99.90;;;;;;4992349;28;20205;-43
2022/03/04 06:06:25;;;;;;;9.63;5.93;;;0.80;99.90;;;;;;4990459;28;20594;-47
2022/03/04 06:08:52;;;;;;;11.60;6.90;;;0.90;99.90;;;;;;4988359;28;20287;-48
2022/03/04 06:11:19;;;;;;;11.97;6.77;;;0.90;99.90;;;;;;4984105;28;20220;-45
2022/03/04 06:13:47;;;;;;;11.37;7.17;;;0.90;99.90;;;;;;5003677;28;20710;-45
2022/03/04 06:16:13;;;;;;;12.40;6.73;;;0.90;99.90;;;;;;4980853;28;20810;-45
2022/03/04 06:18:41;;;;;;;14.07;6.27;;;1.00;99.90;;;;;;4997816;28;20221;-49
2022/03/04 06:21:09;;;;;;;12.73;7.67;;;1.10;99.90;;;;;;4976373;28;20471;-49
2022/03/04 06:23:36;;;;;;;12.53;6.20;;;1.80;99.90;;;;;;4981715;28;20210;-43
2022/03/04 06:26:03;;;;;;;16.17;6.93;;;1.80;99.90;;;;;;4984078;28;20381;-48
2022/03/04 06:28:30;;;;;;;11.70;6.20;;;1.60;99.90;;;;;;5006845;28;20248;-46
2022/03/04 06:30:57;;;;;;;13.57;7.30;;;1.40;99.90;;;;;;4975774;28;20217;-45
2022/03/04 06:33:35;;;;;;;10.17;6.40;;;1.30;99.90;;;;;;4987081;28;20306;-45
2022/03/04 06:36:04;;;;;;;8.40;5.77;;;1.30;99.90;;;;;;4981285;28;20214;-45
2022/03/04 06:38:34;;;;;;;14.90;6.90;;;1.30;99.90;;;;;;4992882;28;20202;-45
2022/03/04 06:41:01;;;;;;;10.67;6.87;;;1.30;99.90;;;;;;5002021;28;20211;-47
2022/03/04 06:43:28;;;;;;;9.30;5.53;;;1.20;99.90;;;;;;5005920;28;20277;-45
2022/03/04 06:45:56;;;;;;;10.57;6.57;;;1.20;99.90;;;;;;5009171;28;20212;-46
2022/03/04 06:48:23;;;;;;;11.10;6.47;;;1.20;99.90;;;;;;5001881;28;20260;-45
2022/03/04 06:50:50;;;;;;;12.70;6.33;;;1.20;99.90;;;;;;4990474;28;20213;-45
2022/03/04 06:53:18;;;;;;;15.93;7.03;;;1.30;99.90;;;;;;4995585;28;20237;-45
2022/03/04 06:55:47;;;;;;;12.10;7.10;;;1.20;99.90;;;;;;5000105;28;20276;-45
2022/03/04 06:58:13;;;;;;;11.83;7.17;;;1.20;99.90;;;;;;4992268;28;20207;-47
2022/03/04 07:00:41;;;;;;;12.00;7.10;;;1.30;99.90;;;;;;5004057;28;20313;-45
2022/03/04 07:03:08;;;;;;;14.87;7.60;;;1.30;99.90;;;;;;5007748;28;20580;-45
2022/03/04 07:05:35;;;;;;;12.13;7.13;;;1.40;99.90;;;;;;4995064;28;20753;-45
2022/03/04 07:08:04;;;;;;;13.27;6.93;;;1.40;99.90;;;;;;5019800;28;20208;-44
2022/03/04 07:10:30;;;;;;;11.03;6.60;;;1.40;99.90;;;;;;4995781;28;20209;-45
2022/03/04 07:12:59;;;;;;;12.23;6.90;;;1.40;99.90;;;;;;5001897;28;20229;-44
2022/03/04 07:15:25;;;;;;;11.87;6.67;;;1.40;99.90;;;;;;5010655;28;20309;-45
2022/03/04 07:17:52;;;;;;;10.77;6.30;;;1.50;99.90;;;;;;4991263;28;20216;-45
2022/03/04 07:20:19;;;;;;;9.93;6.67;;;1.50;99.90;;;;;;5005130;28;20313;-45
2022/03/04 07:22:46;;;;;;;13.77;7.67;;;1.60;99.90;;;;;;4986018;28;21055;-46
2022/03/04 07:25:15;;;;;;;15.37;8.13;;;1.60;99.90;;;;;;4993942;28;20293;-45
2022/03/04 07:27:43;;;;;;;12.00;6.50;;;1.60;99.90;;;;;;4993130;28;20213;-45
2022/03/04 07:30:13;;;;;;;9.00;6.03;;;1.60;99.90;;;;;;4989565;28;20212;-45
2022/03/04 07:32:41;;;;;;;13.83;7.17;;;1.60;99.90;;;;;;4986421;28;20783;-45
2022/03/04 07:35:10;;;;;;;12.30;7.07;;;1.90;99.90;;;;;;4997269;28;20333;-46
2022/03/04 07:37:37;;;;;;;12.33;6.67;;;1.90;99.90;;;;;;5003194;28;20215;-45
2022/03/04 07:40:05;;;;;;;12.63;6.27;;;1.90;99.90;;;;;;5010843;28;20283;-46
2022/03/04 07:42:32;;;;;;;12.47;7.17;;;1.90;99.90;;;;;;5007250;28;20227;-44
2022/03/04 07:44:59;;;;;;;14.60;7.67;;;1.80;99.90;;;;;;4997776;28;20203;-44
2022/03/04 07:47:27;;;;;;;11.30;6.80;;;1.80;99.90;;;;;;5019412;28;20238;-46
2022/03/04 07:49:54;;;;;;;12.57;7.07;;;1.80;99.90;;;;;;5010847;28;20241;-44
2022/03/04 07:52:22;;;;;;;12.73;7.30;;;1.80;99.90;;;;;;5001639;28;20229;-46
2022/03/04 07:54:49;;;;;;;11.80;7.50;;;1.90;99.90;;;;;;5008794;28;20281;-44
2022/03/04 07:57:15;;;;;;;12.97;7.07;;;1.80;99.90;;;;;;5012827;28;20546;-46
2022/03/04 07:59:42;;;;;;;10.90;7.10;;;1.80;99.90;;;;;;5016806;28;20380;-46
2022/03/04 08:02:09;;;;;;;12.83;7.20;;;1.80;99.90;;;;;;5003325;28;23023;-44
2022/03/04 08:04:37;;;;;;;16.77;8.07;;;1.80;99.90;;;;;;5009085;28;20215;-45
2022/03/04 08:07:04;;;;;;;12.77;7.93;;;1.80;99.90;;;;;;4995430;28;20473;-45
2022/03/04 08:09:31;;;;;;;10.10;6.50;;;1.80;99.90;;;;;;4996280;28;20217;-45
2022/03/04 08:11:58;;;;;;;11.90;7.63;;;1.90;99.90;;;;;;5001995;28;20223;-46
2022/03/04 08:14:25;;;;;;;17.30;7.33;;;1.90;99.90;;;;;;5009190;28;20480;-45
2022/03/04 08:16:52;;;;;;;11.53;7.53;;;1.90;99.90;;;;;;4997082;28;20505;-45
2022/03/04 08:19:19;;;;;;;13.27;6.47;;;1.90;99.90;;;;;;5010682;28;20206;-45
2022/03/04 08:21:47;;;;;;;13.53;7.17;;;2.00;99.90;;;;;;5009640;28;20230;-45
2022/03/04 08:24:14;;;;;;;12.40;7.03;;;2.00;99.90;;;;;;5000696;28;20622;-45
2022/03/04 08:26:42;;;;;;;11.07;7.27;;;2.00;99.90;;;;;;4992903;28;20314;-45
2022/03/04 08:29:09;;;;;;;12.30;7.67;;;2.10;99.90;;;;;;4997943;28;20233;-45
2022/03/04 08:31:35;;;;;;;17.33;7.53;;;2.00;99.90;;;;;;5017110;28;20313;-45
2022/03/04 08:34:02;;;;;;;15.83;7.43;;;2.00;99.90;;;;;;5001933;28;20296;-45
2022/03/04 08:36:29;;;;;;;11.20;6.77;;;2.00;99.90;;;;;;5012098;28;20205;-44
2022/03/04 08:38:59;;;;;;;13.57;7.80;;;2.00;99.90;;;;;;5003287;28;20238;-49
2022/03/04 08:41:26;;;;;;;12.67;6.70;;;2.00;99.90;;;;;;5016828;28;20668;-47
2022/03/04 08:43:53;;;;;;;11.90;7.17;;;2.00;99.90;;;;;;4989641;28;20394;-49
2022/03/04 08:46:21;;;;;;;12.37;7.30;;;2.00;99.90;;;;;;4989008;28;20235;-46
2022/03/04 08:48:48;;;;;;;11.17;7.20;;;2.00;99.90;;;;;;5016595;28;20211;-48
2022/03/04 08:51:15;;;;;;;12.27;7.43;;;2.10;99.90;;;;;;5011484;28;20297;-45
2022/03/04 08:53:42;;;;;;;12.53;7.50;;;2.10;99.90;;;;;;4996807;28;20226;-47
2022/03/04 08:56:11;;;;;;;15.80;7.80;;;2.20;99.90;;;;;;5002235;28;20675;-46
2022/03/04 08:58:37;;;;;;;11.60;6.40;;;2.20;99.90;;;;;;5003529;28;20215;-46
2022/03/04 09:01:04;;;;;;;13.97;6.53;;;2.20;99.90;;;;;;4981791;28;20651;-46
2022/03/04 09:03:31;;;;;;;12.00;7.47;;;2.20;99.90;;;;;;5002611;28;20207;-45
2022/03/04 09:05:58;;;;;;;13.63;6.23;;;2.10;99.90;;;;;;5003751;28;20462;-49
2022/03/04 09:08:25;;;;;;;11.83;6.67;;;2.20;99.90;;;;;;5019012;28;20622;-46
2022/03/04 09:10:52;;;;;;;12.57;6.67;;;2.20;99.90;;;;;;4999334;28;20289;-49
2022/03/04 09:13:20;;;;;;;12.83;7.00;;;2.20;99.90;;;;;;5002407;28;20943;-45
2022/03/04 09:15:47;;;;;;;12.20;6.73;;;2.30;99.90;;;;;;4984357;28;20713;-46
2022/03/04 09:18:14;;;;;;;11.70;6.30;;;2.30;99.90;;;;;;5012130;28;20231;-47
2022/03/04 09:20:41;;;;;;;12.83;7.20;;;2.40;99.90;;;;;;5010620;28;21217;-43
2022/03/04 09:23:08;;;;;;;9.33;5.90;;;2.40;99.90;;;;;;4989568;28;20230;-44
2022/03/04 09:25:35;;;;;;;10.17;6.17;;;2.50;99.90;;;;;;4988780;28;20236;-48
2022/03/04 09:28:03;;;;;;;12.07;6.50;;;2.50;99.90;;;;;;5007182;28;20519;-48
2022/03/04 09:30:33;;;;;;;12.13;5.93;;;2.50;99.90;;;;;;4990019;28;20216;-44
2022/03/04 09:33:00;;;;;;;10.23;6.30;;;2.50;99.90;;;;;;5014229;28;20463;-45
2022/03/04 09:35:27;;;;;;;10.77;5.50;;;2.50;99.90;;;;;;4994091;28;20216;-44
2022/03/04 09:37:54;;;;;;;11.97;6.50;;;2.50;99.90;;;;;;5015611;28;20351;-45
2022/03/04 09:40:21;;;;;;;10.77;5.80;;;2.50;99.90;;;;;;4999300;28;20221;-44
2022/03/04 09:42:48;;;;;;;12.27;6.10;;;2.60;99.90;;;;;;5006367;28;20420;-44
2022/03/04 09:45:15;;;;;;;9.00;5.87;;;2.60;99.90;;;;;;5002548;28;20213;-46
2022/03/04 09:47:43;;;;;;;9.17;6.00;;;2.70;99.90;;;;;;4991582;28;20289;-44
2022/03/04 09:50:13;;;;;;;9.30;5.80;;;2.70;99.90;;;;;;5017736;28;20211;-45
2022/03/04 09:52:41;;;;;;;11.53;5.93;;;2.70;99.90;;;;;;4993217;28;20231;-44
2022/03/04 09:55:08;;;;;;;11.17;7.10;;;2.70;99.90;;;;;;5009747;28;20209;-44
2022/03/04 09:57:35;;;;;;;9.33;5.83;;;2.80;99.90;;;;;;4988357;28;20555;-44
2022/03/04 10:00:04;;;;;;;14.87;7.23;;;2.80;99.90;;;;;;5002325;28;20458;-46
2022/03/04 10:02:34;;;;;;;11.83;6.30;;;2.80;99.90;;;;;;4994550;28;20233;-45
2022/03/04 10:05:03;;;;;;;15.03;5.77;;;2.80;99.90;;;;;;5016721;28;20495;-45
2022/03/04 10:07:40;;;;;;;12.20;6.57;;;2.90;99.90;;;;;;5010215;28;20467;-46
2022/03/04 10:10:12;;;;;;;13.30;6.00;;;2.90;99.90;;;;;;5014134;28;20282;-45
2022/03/04 10:12:47;;;;;;;9.53;5.57;;;3.00;99.90;;;;;;4994044;28;20224;-44
2022/03/04 10:15:15;;;;;;;11.87;6.90;;;3.00;99.90;;;;;;4992022;28;20220;-44
2022/03/04 10:17:41;;;;;;;11.40;6.53;;;3.10;99.90;;;;;;4983526;28;20336;-45
2022/03/04 10:20:12;;;;;;;11.60;6.73;;;3.20;99.90;;;;;;5016072;28;20216;-45
2022/03/04 10:22:45;;;;;;;10.00;5.63;;;3.20;99.90;;;;;;5005635;28;20229;-46
2022/03/04 10:25:19;;;;;;;9.60;5.50;;;3.40;99.90;;;;;;5015678;28;20464;-46
2022/03/04 10:27:47;;;;;;;10.73;5.40;;;3.50;99.90;;;;;;5000169;28;20436;-46
2022/03/04 10:30:15;;;;;;;10.50;6.33;;;3.60;99.90;;;;;;5008565;28;20259;-45
2022/03/04 10:32:43;;;;;;;16.27;6.67;;;3.60;99.90;;;;;;5005179;28;20559;-44
2022/03/04 10:35:13;;;;;;;9.43;6.20;;;3.70;99.90;;;;;;5006392;28;20344;-49
2022/03/04 10:37:43;;;;;;;10.00;5.70;;;3.70;99.90;;;;;;5010905;28;20391;-46
2022/03/04 10:40:12;;;;;;;9.40;5.83;;;3.80;99.90;;;;;;5007671;28;20280;-49
2022/03/04 10:42:51;;;;;;;10.50;5.87;;;3.70;99.90;;;;;;4995725;28;20646;-44
2022/03/04 10:45:21;;;;;;;10.90;5.53;;;3.70;99.90;;;;;;5000369;28;20237;-46
2022/03/04 10:47:50;;;;;;;10.87;5.63;;;3.70;99.90;;;;;;5011455;28;20660;-45
2022/03/04 10:50:26;;;;;;;8.40;5.10;;;3.70;99.90;;;;;;4999688;28;20526;-46
2022/03/04 10:52:58;;;;;;;8.67;5.60;;;3.70;99.90;;;;;;5017360;28;20260;-45
2022/03/04 10:55:33;;;;;;;10.43;6.53;;;3.70;99.90;;;;;;5009853;28;20378;-47
2022/03/04 10:58:02;;;;;;;9.90;6.00;;;3.90;99.90;;;;;;4995759;28;20276;-45
2022/03/04 11:00:32;;;;;;;10.47;6.03;;;4.00;99.90;;;;;;5009646;28;20299;-45
2022/03/04 11:03:00;;;;;;;9.67;6.37;;;4.00;99.90;;;;;;5002204;28;20545;-46
2022/03/04 11:05:28;;;;;;;9.67;5.57;;;4.10;99.90;;;;;;5007239;28;20597;-46
2022/03/04 11:07:55;;;;;;;11.33;5.97;;;4.10;99.90;;;;;;5019580;28;20517;-45
2022/03/04 11:10:22;;;;;;;9.57;6.03;;;4.20;99.90;;;;;;5019068;28;20210;-46
2022/03/04 11:12:52;;;;;;;8.37;5.67;;;4.30;99.90;;;;;;5006968;28;20225;-45
2022/03/04 11:15:21;;;;;;;14.73;7.27;;;4.30;99.90;;;;;;4996394;28;21108;-46
2022/03/04 11:17:49;;;;;;;10.57;6.13;;;4.30;99.90;;;;;;5009929;28;20549;-45
2022/03/04 11:20:18;;;;;;;10.00;6.20;;;4.10;99.90;;;;;;5013013;28;20235;-46
2022/03/04 11:22:49;;;;;;;12.43;6.17;;;4.00;99.90;;;;;;5008020;28;20455;-45
2022/03/04 11:25:17;;;;;;;11.07;5.67;;;3.90;99.90;;;;;;5017421;28;20956;-45
2022/03/04 11:27:46;;;;;;;10.47;5.53;;;3.90;99.90;;;;;;5006480;28;20737;-44
2022/03/04 11:30:38;;;;;;;9.67;5.20;;;4.00;99.90;;;;;;4989785;28;20222;-47
2022/03/04 11:33:26;;;;;;;9.60;5.47;;;4.00;99.90;;;;;;5007217;28;20234;-45
2022/03/04 11:36:05;;;;;;;8.13;5.30;;;4.20;99.90;;;;;;5012963;28;20511;-45
2022/03/04 11:38:59;;;;;;;10.47;5.97;;;4.30;99.90;;;;;;5017264;28;20414;-45
2022/03/04 11:41:37;;;;;;;9.47;6.00;;;4.40;99.90;;;;;;4997462;28;20233;-47
2022/03/04 11:44:13;;;;;;;10.10;5.70;;;4.50;99.90;;;;;;5006568;28;20210;-46
2022/03/04 11:46:49;;;;;;;9.17;5.40;;;4.60;99.90;;;;;;5009311;28;20419;-45
2022/03/04 11:49:44;;;;;;;9.57;5.83;;;4.70;99.90;;;;;;5007233;28;20251;-45
2022/03/04 11:52:25;;;;;;;8.90;5.50;;;4.70;99.90;;;;;;4994651;28;20264;-46
2022/03/04 11:55:13;;;;;;;10.80;6.27;;;4.60;99.90;;;;;;5023070;28;20491;-45
2022/03/04 11:57:43;;;;;;;8.60;5.27;;;4.50;99.90;;;;;;5015734;28;20474;-45
2022/03/04 12:00:34;;;;;;;8.70;5.63;;;4.60;99.90;;;;;;5001206;28;20235;-44
2022/03/04 12:03:15;;;;;;;12.77;5.90;;;4.50;99.90;;;;;;5012415;28;20230;-45
2022/03/04 12:05:47;;;;;;;12.83;5.43;;;4.40;99.90;;;;;;5009038;28;20376;-46
2022/03/04 12:08:15;;;;;;;7.80;5.30;;;4.40;99.90;;;;;;4997075;28;20216;-44
2022/03/04 12:10:52;;;;;;;8.03;5.20;;;4.50;99.90;;;;;;5003349;28;21169;-46
2022/03/04 12:13:24;;;;;;;7.17;4.93;;;4.50;99.90;;;;;;5018219;28;20555;-46
2022/03/04 12:15:53;;;;;;;8.57;5.90;;;4.60;99.90;;;;;;4997541;28;20484;-45
2022/03/04 12:18:30;;;;;;;10.07;5.77;;;4.60;99.90;;;;;;4997150;28;20214;-50
2022/03/04 12:21:16;;;;;;;10.30;5.50;;;4.60;99.90;;;;;;5011550;28;20210;-46
2022/03/04 12:23:49;;;;;;;9.33;5.33;;;4.70;99.90;;;;;;5007849;28;20219;-43
2022/03/04 12:26:22;;;;;;;11.03;6.00;;;4.70;99.90;;;;;;5020456;28;20472;-47
2022/03/04 12:28:52;;;;;;;12.00;7.17;;;4.60;99.90;;;;;;5004751;28;20550;-44
2022/03/04 12:31:25;;;;;;;13.10;7.17;;;4.70;99.90;;;;;;4999420;28;20597;-49
2022/03/04 12:33:55;;;;;;;11.87;5.63;;;4.90;99.90;;;;;;5015301;28;20545;-48
2022/03/04 12:36:24;;;;;;;14.37;8.33;;;4.70;99.90;;;;;;4996244;28;20476;-49
2022/03/04 12:38:53;;;;;;;13.97;7.50;;;4.70;99.90;;;;;;5008300;28;20237;-44
2022/03/04 12:41:22;;;;;;;7.97;4.93;;;4.80;99.90;;;;;;5013923;28;20340;-48
2022/03/04 12:43:51;;;;;;;6.97;4.50;;;4.80;99.90;;;;;;5008041;28;20198;-46
2022/03/04 12:46:20;;;;;;;9.80;4.90;;;4.90;99.90;;;;;;5016576;28;20410;-47
2022/03/04 12:48:48;;;;;;;9.40;4.37;;;4.90;99.90;;;;;;4995982;28;20244;-43
2022/03/04 12:51:23;;;;;;;10.20;4.87;;;4.90;99.90;;;;;;4991158;28;20714;-48
2022/03/04 12:53:50;;;;;;;8.47;4.73;;;4.70;99.90;;;;;;5009571;28;20300;-46
2022/03/04 12:56:20;;;;;;;6.17;3.93;;;5.00;99.90;;;;;;4998268;28;20214;-50
2022/03/04 12:58:50;;;;;;;7.57;5.00;;;5.00;99.90;;;;;;5018274;28;20198;-44